Time;durP1;ratioP1;P1;durP2;ratioP2;P2;SDS_P1;SDS_P2;PMS_P1;PMS_P2;Temp;Humidity;BMP_temperature;BMP_pressure;BME280_temperature;BME280_humidity;BME280_pressure;Samples;Min_cycle;Max_cycle;Signal;HPM_P1;HPM_P2
2020/12/14 00:02:04;;;;;;;48.47;23.55;;;6.40;99.90;;;;;;5132959;27;20080;-81
2020/12/14 00:04:30;;;;;;;44.53;21.30;;;6.40;99.90;;;;;;5134937;27;20014;-82
2020/12/14 00:06:55;;;;;;;52.10;21.92;;;6.40;99.90;;;;;;5134991;27;20038;-81
2020/12/14 00:09:23;;;;;;;43.72;20.35;;;6.40;99.90;;;;;;5143010;27;20510;-81
2020/12/14 00:11:49;;;;;;;43.47;20.27;;;6.40;99.90;;;;;;5114361;27;20023;-81
2020/12/14 00:14:15;;;;;;;43.75;21.23;;;6.40;99.90;;;;;;5114475;27;20027;-81
2020/12/14 00:16:41;;;;;;;43.38;19.83;;;6.50;99.90;;;;;;5132949;27;20091;-82
2020/12/14 00:19:07;;;;;;;44.90;19.55;;;6.50;99.90;;;;;;5114518;27;20023;-82
2020/12/14 00:21:33;;;;;;;40.72;19.52;;;6.50;99.90;;;;;;5119427;27;20018;-80
2020/12/14 00:23:58;;;;;;;43.83;19.73;;;6.50;99.90;;;;;;5134721;27;20045;-80
2020/12/14 00:26:24;;;;;;;41.15;20.63;;;6.50;99.90;;;;;;5133818;27;20038;-80
2020/12/14 00:28:49;;;;;;;41.97;19.77;;;6.50;99.90;;;;;;5135061;27;20022;-81
2020/12/14 00:31:16;;;;;;;36.85;19.40;;;6.50;99.90;;;;;;5132053;27;20561;-81
2020/12/14 00:33:46;;;;;;;41.83;18.55;;;6.50;99.90;;;;;;5134776;27;20048;-81
2020/12/14 00:36:11;;;;;;;50.38;21.73;;;6.40;99.90;;;;;;5134857;27;20030;-81
2020/12/14 00:38:38;;;;;;;48.20;21.30;;;6.40;99.90;;;;;;5129867;27;20076;-81
2020/12/14 00:41:04;;;;;;;50.50;22.27;;;6.30;99.90;;;;;;5118185;27;20428;-81
2020/12/14 00:43:30;;;;;;;46.08;23.13;;;6.30;99.90;;;;;;5131093;27;20030;-81
2020/12/14 00:45:56;;;;;;;49.30;23.33;;;6.20;99.90;;;;;;5132442;27;20027;-81
2020/12/14 00:48:21;;;;;;;51.95;22.30;;;6.20;99.90;;;;;;5132664;27;20027;-82
2020/12/14 00:50:47;;;;;;;43.08;22.50;;;6.10;99.90;;;;;;5130892;27;20034;-81
2020/12/14 00:53:13;;;;;;;49.40;20.65;;;6.20;99.90;;;;;;5130714;27;20087;-81
2020/12/14 00:55:39;;;;;;;41.50;21.42;;;6.20;99.90;;;;;;5134262;27;20086;-81
2020/12/14 00:58:04;;;;;;;41.03;21.13;;;6.20;99.90;;;;;;5133650;27;20027;-81
2020/12/14 01:00:30;;;;;;;35.50;18.70;;;6.20;99.90;;;;;;5122073;27;20397;-81
2020/12/14 01:02:56;;;;;;;45.75;19.42;;;6.20;99.90;;;;;;5134606;27;20053;-81
2020/12/14 01:05:22;;;;;;;39.42;18.88;;;6.20;99.90;;;;;;5133458;27;20491;-81
2020/12/14 01:07:47;;;;;;;37.95;18.95;;;6.20;99.90;;;;;;5133234;27;20046;-82
2020/12/14 01:10:13;;;;;;;34.13;16.63;;;6.20;99.90;;;;;;5132736;27;20062;-82
2020/12/14 01:12:38;;;;;;;36.22;17.60;;;6.20;99.90;;;;;;5133933;27;20467;-82
2020/12/14 01:15:05;;;;;;;30.95;16.00;;;6.20;99.90;;;;;;5134200;27;20026;-82
2020/12/14 01:17:31;;;;;;;34.83;15.93;;;6.30;99.90;;;;;;5134527;27;20031;-82
2020/12/14 01:19:57;;;;;;;38.55;17.10;;;6.30;99.90;;;;;;5133945;27;20538;-82
2020/12/14 01:22:23;;;;;;;33.65;16.58;;;6.30;99.90;;;;;;5135268;27;20027;-82
2020/12/14 01:24:48;;;;;;;34.22;16.63;;;6.30;99.90;;;;;;5135904;27;20558;-82
2020/12/14 01:27:14;;;;;;;28.42;14.35;;;6.30;99.90;;;;;;5113388;27;20050;-82
2020/12/14 01:29:39;;;;;;;33.83;16.38;;;6.40;99.90;;;;;;5114436;27;20019;-82
2020/12/14 01:32:05;;;;;;;31.67;15.88;;;6.30;99.90;;;;;;5133200;27;20535;-82
2020/12/14 01:34:31;;;;;;;28.17;13.93;;;6.30;99.90;;;;;;5129608;27;20054;-82
2020/12/14 01:36:57;;;;;;;27.02;13.70;;;6.30;99.90;;;;;;5112860;27;20027;-81
2020/12/14 01:39:24;;;;;;;24.23;13.35;;;6.40;99.90;;;;;;5124521;27;20131;-82
2020/12/14 01:41:52;;;;;;;23.83;12.35;;;6.30;99.90;;;;;;5117908;27;20509;-82
2020/12/14 01:44:17;;;;;;;28.77;13.75;;;6.40;99.90;;;;;;5112784;27;20083;-82
2020/12/14 01:46:44;;;;;;;29.27;14.15;;;6.40;99.90;;;;;;5112472;27;20031;-81
2020/12/14 01:49:14;;;;;;;26.27;13.23;;;6.30;99.90;;;;;;5112497;27;20019;-82
2020/12/14 01:51:39;;;;;;;25.75;13.63;;;6.40;99.90;;;;;;5132814;27;20046;-82
2020/12/14 01:54:21;;;;;;;27.45;11.95;;;6.30;99.90;;;;;;5133079;27;20383;-81
2020/12/14 01:56:47;;;;;;;28.10;12.80;;;6.30;99.90;;;;;;5113347;27;20027;-81
2020/12/14 01:59:13;;;;;;;32.17;13.55;;;6.30;99.90;;;;;;5123129;27;20396;-81
2020/12/14 02:01:38;;;;;;;24.00;11.48;;;6.30;99.90;;;;;;5133092;27;20026;-80
2020/12/14 02:04:04;;;;;;;26.50;12.20;;;6.30;99.90;;;;;;5151551;27;20027;-81
2020/12/14 02:06:30;;;;;;;20.73;11.60;;;6.30;99.90;;;;;;5119150;27;20060;-81
2020/12/14 02:08:56;;;;;;;24.33;11.60;;;6.40;99.90;;;;;;5132209;27;20026;-81
2020/12/14 02:11:21;;;;;;;23.35;11.20;;;6.30;99.90;;;;;;5148442;27;20031;-81
2020/12/14 02:13:47;;;;;;;22.48;11.50;;;6.40;99.90;;;;;;5129182;27;20404;-81
2020/12/14 02:16:13;;;;;;;22.08;11.30;;;6.40;99.90;;;;;;5131443;27;20030;-81
2020/12/14 02:18:39;;;;;;;22.08;12.25;;;6.40;99.90;;;;;;5132768;27;20431;-81
2020/12/14 02:21:05;;;;;;;28.08;12.43;;;6.30;99.90;;;;;;5132369;27;20034;-81
2020/12/14 02:23:30;;;;;;;25.50;12.43;;;6.40;99.90;;;;;;5132442;27;20407;-81
2020/12/14 02:25:56;;;;;;;22.52;12.00;;;6.40;99.90;;;;;;5128933;27;20034;-81
2020/12/14 02:28:23;;;;;;;22.23;12.02;;;6.40;99.90;;;;;;5132759;27;20019;-82
2020/12/14 02:30:49;;;;;;;26.95;11.57;;;6.40;99.90;;;;;;5117457;27;20499;-81
2020/12/14 02:33:14;;;;;;;21.55;11.45;;;6.40;99.90;;;;;;5112078;27;20108;-81
2020/12/14 02:35:40;;;;;;;22.58;12.35;;;6.40;99.90;;;;;;5111426;27;20030;-82
2020/12/14 02:38:06;;;;;;;21.55;11.38;;;6.40;99.90;;;;;;5129894;27;20015;-81
2020/12/14 02:40:34;;;;;;;26.23;11.13;;;6.50;99.90;;;;;;5126493;27;20037;-81
2020/12/14 02:43:00;;;;;;;18.52;10.43;;;6.40;99.90;;;;;;5129461;27;20095;-82
2020/12/14 02:45:26;;;;;;;24.80;11.23;;;6.40;99.90;;;;;;5132226;27;20442;-81
2020/12/14 02:47:51;;;;;;;22.13;10.88;;;6.40;99.90;;;;;;5131964;27;20039;-82
2020/12/14 02:50:17;;;;;;;21.35;11.02;;;6.40;99.90;;;;;;5132874;27;20485;-81
2020/12/14 02:52:42;;;;;;;23.67;12.73;;;6.40;99.90;;;;;;5132563;27;20031;-82
2020/12/14 02:55:08;;;;;;;28.92;11.05;;;6.40;99.90;;;;;;5132464;27;20026;-82
2020/12/14 02:57:34;;;;;;;21.88;10.52;;;6.30;99.90;;;;;;5132575;27;20047;-82
2020/12/14 02:59:59;;;;;;;21.50;11.52;;;6.30;99.90;;;;;;5142928;27;20109;-82
2020/12/14 03:02:25;;;;;;;25.90;11.95;;;6.30;99.90;;;;;;5130637;28;20486;-82
2020/12/14 03:04:50;;;;;;;20.73;10.75;;;6.30;99.90;;;;;;5112266;28;20552;-82
2020/12/14 03:07:16;;;;;;;17.05;9.23;;;6.30;99.90;;;;;;5112054;28;20515;-81
2020/12/14 03:09:41;;;;;;;31.90;11.55;;;6.40;99.90;;;;;;5116829;28;20023;-82
2020/12/14 03:12:07;;;;;;;23.27;10.20;;;6.40;99.90;;;;;;5110966;28;20410;-82
2020/12/14 03:14:33;;;;;;;19.08;10.75;;;6.40;99.90;;;;;;5115547;27;20398;-82
2020/12/14 03:16:58;;;;;;;24.42;11.35;;;6.40;99.90;;;;;;5131881;27;20382;-81
2020/12/14 03:19:24;;;;;;;16.83;9.55;;;6.40;99.90;;;;;;5128402;27;20471;-81
2020/12/14 03:21:50;;;;;;;19.92;9.50;;;6.40;99.90;;;;;;5130930;27;20045;-81
2020/12/14 03:24:15;;;;;;;21.13;10.93;;;6.40;99.90;;;;;;5131392;27;20432;-81
2020/12/14 03:26:41;;;;;;;27.83;9.65;;;6.40;99.90;;;;;;5132263;27;20383;-81
2020/12/14 03:29:08;;;;;;;22.17;9.85;;;6.40;99.90;;;;;;5135613;27;20029;-81
2020/12/14 03:31:35;;;;;;;20.00;9.43;;;6.40;99.90;;;;;;5133774;27;20027;-81
2020/12/14 03:34:01;;;;;;;19.05;8.75;;;6.40;99.90;;;;;;5148658;27;20026;-81
2020/12/14 03:36:27;;;;;;;23.50;9.65;;;6.40;99.90;;;;;;5135404;27;20079;-81
2020/12/14 03:38:54;;;;;;;20.13;10.15;;;6.40;99.90;;;;;;5150346;27;20046;-81
2020/12/14 03:41:21;;;;;;;20.98;9.45;;;6.40;99.90;;;;;;5152162;27;20475;-82
2020/12/14 03:43:47;;;;;;;29.63;9.95;;;6.40;99.90;;;;;;5135979;27;20027;-82
2020/12/14 03:46:19;;;;;;;23.17;9.13;;;6.40;99.90;;;;;;5135189;27;20046;-80
2020/12/14 03:48:44;;;;;;;19.08;8.07;;;6.40;99.90;;;;;;5142932;27;20084;-80
2020/12/14 03:51:14;;;;;;;15.20;8.88;;;6.40;99.90;;;;;;5135367;27;20030;-80
2020/12/14 03:53:40;;;;;;;16.98;8.35;;;6.40;99.90;;;;;;5153938;27;20029;-82
2020/12/14 03:56:05;;;;;;;16.90;7.70;;;6.40;99.90;;;;;;5135110;27;20028;-81
2020/12/14 03:58:32;;;;;;;19.05;9.40;;;6.40;99.90;;;;;;5135434;27;20169;-81
2020/12/14 04:00:57;;;;;;;17.73;7.68;;;6.40;99.90;;;;;;5125846;27;20035;-81
2020/12/14 04:03:24;;;;;;;26.83;9.20;;;6.40;99.90;;;;;;5131051;27;20023;-81
2020/12/14 04:05:50;;;;;;;29.25;8.48;;;6.40;99.90;;;;;;5153580;27;20038;-79
2020/12/14 04:08:16;;;;;;;15.15;7.80;;;6.40;99.90;;;;;;5135069;27;20042;-80
2020/12/14 04:10:42;;;;;;;21.20;7.28;;;6.50;99.90;;;;;;5121014;27;20042;-80
2020/12/14 04:13:08;;;;;;;16.20;7.63;;;6.50;99.90;;;;;;5114842;27;20015;-80
2020/12/14 04:15:34;;;;;;;18.13;7.05;;;6.50;99.90;;;;;;5114398;27;20053;-80
2020/12/14 04:17:59;;;;;;;18.55;7.40;;;6.50;99.90;;;;;;5114725;27;20034;-81
2020/12/14 04:20:25;;;;;;;14.93;6.55;;;6.50;99.90;;;;;;5114542;27;20031;-81
2020/12/14 04:22:50;;;;;;;17.65;6.50;;;6.50;99.90;;;;;;5114361;27;20026;-80
2020/12/14 04:25:17;;;;;;;21.38;6.93;;;6.50;99.90;;;;;;5132353;27;20042;-81
2020/12/14 04:27:43;;;;;;;18.60;6.85;;;6.40;99.90;;;;;;5114415;27;20376;-81
2020/12/14 04:30:09;;;;;;;15.20;7.03;;;6.50;99.90;;;;;;5122315;27;20491;-81
2020/12/14 04:32:35;;;;;;;28.15;7.35;;;6.50;99.90;;;;;;5126576;27;20067;-81
2020/12/14 04:35:00;;;;;;;14.57;7.10;;;6.50;99.90;;;;;;5132680;27;20035;-82
2020/12/14 04:37:26;;;;;;;16.80;7.10;;;6.60;99.90;;;;;;5114645;27;20382;-82
2020/12/14 04:39:51;;;;;;;11.43;6.53;;;6.60;99.90;;;;;;5114095;27;20027;-81
2020/12/14 04:42:17;;;;;;;18.30;6.75;;;6.50;99.90;;;;;;5133962;27;20027;-81
2020/12/14 04:44:43;;;;;;;17.58;5.85;;;6.50;99.90;;;;;;5134239;27;20029;-80
2020/12/14 04:47:13;;;;;;;15.02;6.82;;;6.50;99.90;;;;;;5133995;27;20114;-80
2020/12/14 04:49:41;;;;;;;21.80;6.47;;;6.60;99.90;;;;;;5134255;27;20075;-81
2020/12/14 04:52:07;;;;;;;26.52;6.55;;;6.60;99.90;;;;;;5133604;27;20023;-80
2020/12/14 04:54:33;;;;;;;14.57;5.88;;;6.60;99.90;;;;;;5133917;27;20041;-81
2020/12/14 04:57:08;;;;;;;18.92;6.63;;;6.60;99.90;;;;;;5133963;27;20022;-81
2020/12/14 04:59:34;;;;;;;23.00;5.95;;;6.50;99.90;;;;;;5129292;27;20031;-81
2020/12/14 05:02:07;;;;;;;16.73;6.05;;;6.60;99.90;;;;;;5114561;27;20041;-80
2020/12/14 05:04:34;;;;;;;12.98;5.63;;;6.60;99.90;;;;;;5133807;27;20027;-82
2020/12/14 05:07:00;;;;;;;11.60;5.95;;;6.60;99.90;;;;;;5133565;27;20452;-81
2020/12/14 05:09:25;;;;;;;9.68;5.45;;;6.60;99.90;;;;;;5134309;27;20042;-81
2020/12/14 05:11:51;;;;;;;14.88;5.45;;;6.60;99.90;;;;;;5133903;27;20463;-81
2020/12/14 05:14:22;;;;;;;19.95;5.82;;;6.60;99.90;;;;;;5133540;27;20023;-81
2020/12/14 05:16:49;;;;;;;17.20;5.90;;;6.60;99.90;;;;;;5133980;27;20018;-81
2020/12/14 05:19:22;;;;;;;14.25;5.70;;;6.60;99.90;;;;;;5132506;27;20387;-81
2020/12/14 05:21:50;;;;;;;18.02;6.68;;;6.60;99.90;;;;;;5131635;27;20026;-81
2020/12/14 05:24:24;;;;;;;12.63;5.88;;;6.60;99.90;;;;;;5131921;27;20038;-81
2020/12/14 05:26:51;;;;;;;19.55;7.45;;;6.60;99.90;;;;;;5122815;27;20115;-81
2020/12/14 05:29:27;;;;;;;26.20;6.72;;;6.60;99.90;;;;;;5149185;27;20011;-82
2020/12/14 05:32:07;;;;;;;19.85;5.43;;;6.60;99.90;;;;;;5132691;27;20070;-81
2020/12/14 05:34:43;;;;;;;12.30;5.20;;;6.60;99.90;;;;;;5129990;27;20029;-81
2020/12/14 05:37:14;;;;;;;19.77;5.50;;;6.70;99.90;;;;;;5128360;27;20387;-81
2020/12/14 05:39:40;;;;;;;20.10;6.10;;;6.70;99.90;;;;;;5126572;27;20029;-81
2020/12/14 05:42:09;;;;;;;16.50;5.78;;;6.60;99.90;;;;;;5131739;27;20031;-82
2020/12/14 05:44:35;;;;;;;15.63;5.57;;;6.60;99.90;;;;;;5148127;27;20379;-82
2020/12/14 05:47:01;;;;;;;15.30;5.82;;;6.60;99.90;;;;;;5109742;27;20047;-82
2020/12/14 05:49:27;;;;;;;15.98;6.55;;;6.60;99.90;;;;;;5132571;27;20447;-82
2020/12/14 05:52:01;;;;;;;12.13;5.72;;;6.70;99.90;;;;;;5131232;27;20421;-82
2020/12/14 05:54:37;;;;;;;22.40;5.93;;;6.60;99.90;;;;;;5132039;27;20057;-81
2020/12/14 05:57:03;;;;;;;16.75;6.07;;;6.70;99.90;;;;;;5150091;27;20130;-81
2020/12/14 05:59:34;;;;;;;16.88;5.18;;;6.60;99.90;;;;;;5128627;27;20027;-81
2020/12/14 06:02:04;;;;;;;14.63;5.35;;;6.60;99.90;;;;;;5144578;27;20082;-81
2020/12/14 06:04:34;;;;;;;26.75;6.35;;;6.60;99.90;;;;;;5127193;27;20023;-81
2020/12/14 06:07:05;;;;;;;16.65;6.03;;;6.60;99.90;;;;;;5123110;27;20051;-81
2020/12/14 06:09:39;;;;;;;21.15;5.93;;;6.60;99.90;;;;;;5128946;27;20037;-81
2020/12/14 06:12:05;;;;;;;20.48;5.95;;;6.60;99.90;;;;;;5128823;27;20521;-81
2020/12/14 06:14:38;;;;;;;21.70;5.53;;;6.60;99.90;;;;;;5144313;27;20027;-82
2020/12/14 06:17:10;;;;;;;18.33;6.30;;;6.60;99.90;;;;;;5130246;27;20380;-82
2020/12/14 06:19:35;;;;;;;26.77;6.15;;;6.70;99.90;;;;;;5125527;27;20076;-81
2020/12/14 06:22:04;;;;;;;11.30;5.45;;;6.60;99.90;;;;;;5124636;27;20563;-82
2020/12/14 06:24:32;;;;;;;12.68;6.70;;;6.60;99.90;;;;;;5118061;27;20056;-82
2020/12/14 06:26:59;;;;;;;19.27;6.38;;;6.60;99.90;;;;;;5105462;27;20036;-81
2020/12/14 06:29:50;;;;;;;18.77;7.05;;;6.60;99.90;;;;;;5089074;27;20050;-81
2020/12/14 06:32:38;;;;;;;18.88;6.20;;;6.50;99.90;;;;;;5105947;27;20047;-82
2020/12/14 06:35:06;;;;;;;16.55;7.55;;;6.60;99.90;;;;;;5104968;28;20044;-82
2020/12/14 06:37:52;;;;;;;19.30;6.80;;;6.50;99.90;;;;;;5087238;28;20036;-82
2020/12/14 06:40:18;;;;;;;21.00;7.05;;;6.60;99.90;;;;;;5086566;28;20028;-81
2020/12/14 06:42:45;;;;;;;16.55;6.85;;;6.60;99.90;;;;;;5087517;28;20031;-81
2020/12/14 06:45:12;;;;;;;13.45;6.85;;;6.60;99.90;;;;;;5092932;28;20093;-82
2020/12/14 06:47:49;;;;;;;17.70;7.90;;;6.60;99.90;;;;;;5107392;28;20023;-82
2020/12/14 06:50:22;;;;;;;16.38;6.85;;;6.70;99.90;;;;;;5089302;28;20116;-82
2020/12/14 06:52:47;;;;;;;17.50;6.50;;;6.70;99.90;;;;;;5101376;28;20031;-81
2020/12/14 06:55:14;;;;;;;20.55;7.70;;;6.70;99.90;;;;;;5102215;27;20034;-82
2020/12/14 06:57:40;;;;;;;20.10;7.75;;;6.80;99.90;;;;;;5125791;27;20507;-82
2020/12/14 07:00:07;;;;;;;21.13;7.10;;;6.80;99.90;;;;;;5148717;27;20038;-82
2020/12/14 07:02:42;;;;;;;16.10;7.07;;;6.90;99.90;;;;;;5125212;27;20033;-83
2020/12/14 07:05:30;;;;;;;16.48;7.15;;;6.90;99.90;;;;;;5113554;27;20043;-82
2020/12/14 07:07:56;;;;;;;13.38;6.53;;;6.90;99.90;;;;;;5125369;27;20119;-82
2020/12/14 07:10:30;;;;;;;13.75;6.40;;;6.90;99.90;;;;;;5126959;27;20483;-82
2020/12/14 07:12:56;;;;;;;14.88;7.20;;;6.90;99.90;;;;;;5130226;27;20023;-82
2020/12/14 07:15:24;;;;;;;18.48;8.43;;;6.90;99.90;;;;;;5128092;27;20074;-81
2020/12/14 07:18:21;;;;;;;16.95;6.70;;;7.00;99.90;;;;;;5130337;27;20035;-82
2020/12/14 07:20:54;;;;;;;14.63;6.82;;;6.90;99.90;;;;;;5149843;27;20038;-81
2020/12/14 07:23:21;;;;;;;19.08;6.80;;;7.00;99.90;;;;;;5127522;27;20019;-81
2020/12/14 07:25:48;;;;;;;16.95;7.05;;;7.00;99.90;;;;;;5127396;27;20035;-81
2020/12/14 07:28:14;;;;;;;16.92;6.70;;;7.00;99.90;;;;;;5127907;27;20087;-82
2020/12/14 07:30:40;;;;;;;14.35;6.57;;;7.00;99.90;;;;;;5126878;27;20047;-81
2020/12/14 07:33:05;;;;;;;21.48;6.55;;;7.10;99.90;;;;;;5125138;27;20086;-80
2020/12/14 07:35:31;;;;;;;18.20;6.80;;;7.10;99.90;;;;;;5125199;27;20023;-81
2020/12/14 07:37:57;;;;;;;23.15;7.00;;;7.20;99.90;;;;;;5126174;27;20681;-81
2020/12/14 07:40:22;;;;;;;13.75;5.93;;;7.30;99.90;;;;;;5125605;27;20026;-82
2020/12/14 07:42:48;;;;;;;16.13;6.75;;;7.30;99.90;;;;;;5143252;27;20595;-82
2020/12/14 07:45:23;;;;;;;11.98;5.88;;;7.30;99.90;;;;;;5141343;27;20046;-81
2020/12/14 07:47:53;;;;;;;17.70;6.63;;;7.30;99.90;;;;;;5126009;27;20110;-82
2020/12/14 07:50:22;;;;;;;12.77;6.28;;;7.40;99.90;;;;;;5143977;27;20079;-82
2020/12/14 07:52:53;;;;;;;20.95;6.82;;;7.40;99.90;;;;;;5125343;27;20138;-82
2020/12/14 07:55:19;;;;;;;13.38;5.75;;;7.40;99.90;;;;;;5141101;27;20514;-81
2020/12/14 07:57:46;;;;;;;15.45;6.40;;;7.40;99.90;;;;;;5121393;27;20037;-81
2020/12/14 08:00:20;;;;;;;15.43;5.22;;;7.40;99.90;;;;;;5139527;27;20077;-81
2020/12/14 08:02:48;;;;;;;18.15;6.32;;;7.50;99.90;;;;;;5139533;27;20433;-81
2020/12/14 08:05:17;;;;;;;16.58;5.00;;;7.40;99.90;;;;;;5122458;27;20394;-82
2020/12/14 08:07:48;;;;;;;15.07;5.18;;;7.50;99.90;;;;;;5122235;27;20042;-84
2020/12/14 08:10:17;;;;;;;10.25;5.75;;;7.50;99.90;;;;;;5122273;27;20042;-84
2020/12/14 08:12:43;;;;;;;11.50;5.43;;;7.50;99.90;;;;;;5123744;27;21111;-84
2020/12/14 08:15:17;;;;;;;12.02;5.63;;;7.50;99.90;;;;;;5119049;27;20034;-83
2020/12/14 08:17:45;;;;;;;18.67;6.13;;;7.50;99.90;;;;;;5122421;27;20037;-83
2020/12/14 08:20:33;;;;;;;13.38;6.03;;;7.40;99.90;;;;;;5138838;27;20031;-83
2020/12/14 08:23:00;;;;;;;17.25;6.82;;;7.40;99.90;;;;;;5127262;27;20049;-83
2020/12/14 08:25:28;;;;;;;16.50;6.55;;;7.40;99.90;;;;;;5121339;27;20125;-82
2020/12/14 08:28:02;;;;;;;13.63;6.72;;;7.20;99.90;;;;;;5120678;27;20470;-83
2020/12/14 08:30:28;;;;;;;21.13;7.53;;;7.10;99.90;;;;;;5121693;27;20033;-82
2020/12/14 08:33:14;;;;;;;19.77;9.02;;;7.10;99.90;;;;;;5139720;27;20030;-82
2020/12/14 08:35:42;;;;;;;23.67;7.80;;;7.10;99.90;;;;;;5134885;27;20030;-82
2020/12/14 08:38:37;;;;;;;20.92;7.55;;;7.00;99.90;;;;;;5138750;27;20030;-82
2020/12/14 08:41:05;;;;;;;15.70;6.57;;;7.10;99.90;;;;;;5117874;27;20045;-83
2020/12/14 08:43:36;;;;;;;19.02;7.25;;;7.00;99.90;;;;;;5120217;27;20053;-83
2020/12/14 08:46:09;;;;;;;22.35;7.65;;;7.10;99.90;;;;;;5136695;27;21566;-83
2020/12/14 08:48:41;;;;;;;19.92;8.38;;;7.00;99.90;;;;;;5139277;27;20054;-83
2020/12/14 08:51:21;;;;;;;17.38;7.60;;;7.00;99.90;;;;;;5123029;27;20079;-83
2020/12/14 08:53:50;;;;;;;23.63;8.25;;;7.00;99.90;;;;;;5123582;27;20379;-83
2020/12/14 08:56:31;;;;;;;33.25;13.43;;;7.00;99.90;;;;;;5119029;27;20027;-83
2020/12/14 08:58:59;;;;;;;19.80;9.40;;;7.10;99.90;;;;;;5141887;27;20050;-83
2020/12/14 09:01:29;;;;;;;24.17;7.82;;;7.00;99.90;;;;;;5138621;27;20067;-82
2020/12/14 09:03:59;;;;;;;17.25;7.55;;;7.00;99.90;;;;;;5118354;27;20067;-81
2020/12/14 09:06:30;;;;;;;16.67;7.32;;;7.10;99.90;;;;;;5120679;27;20038;-82
2020/12/14 09:09:13;;;;;;;18.00;7.65;;;7.10;99.90;;;;;;5125264;27;20026;-82
2020/12/14 09:11:42;;;;;;;18.02;7.38;;;7.10;99.90;;;;;;5117681;27;20027;-83
2020/12/14 09:14:08;;;;;;;21.48;8.18;;;7.10;99.90;;;;;;5136997;27;20114;-82
2020/12/14 09:16:36;;;;;;;21.95;7.47;;;7.10;99.90;;;;;;5118769;27;20022;-82
2020/12/14 09:19:03;;;;;;;18.60;7.95;;;7.10;99.90;;;;;;5130556;27;20038;-82
2020/12/14 09:21:31;;;;;;;30.25;9.07;;;7.10;99.90;;;;;;5115410;27;20042;-84
2020/12/14 09:24:17;;;;;;;18.23;8.07;;;7.10;99.90;;;;;;5118134;27;20455;-83
2020/12/14 09:26:44;;;;;;;15.68;7.60;;;7.20;99.90;;;;;;5117009;27;20046;-82
2020/12/14 09:29:10;;;;;;;22.10;9.05;;;7.20;99.90;;;;;;5123130;27;20030;-83
2020/12/14 09:31:36;;;;;;;21.35;7.45;;;7.20;99.90;;;;;;5111417;27;20044;-83
2020/12/14 09:34:02;;;;;;;16.17;7.43;;;7.20;99.90;;;;;;5093068;27;20381;-84
2020/12/14 09:36:27;;;;;;;24.35;8.90;;;7.30;99.90;;;;;;5100323;27;20046;-82
2020/12/14 09:38:56;;;;;;;18.10;6.90;;;7.30;99.90;;;;;;5112260;27;20020;-82
2020/12/14 09:41:24;;;;;;;18.20;7.82;;;7.20;99.90;;;;;;5092910;27;20176;-82
2020/12/14 09:43:50;;;;;;;33.58;9.13;;;7.20;99.90;;;;;;5080187;27;20114;-83
2020/12/14 09:46:17;;;;;;;16.15;7.32;;;7.30;99.90;;;;;;5096167;27;20556;-83
2020/12/14 09:48:44;;;;;;;15.50;8.05;;;7.30;99.90;;;;;;5101785;27;20042;-83
2020/12/14 09:51:10;;;;;;;22.38;8.05;;;7.30;99.90;;;;;;5096915;27;20051;-84
2020/12/14 09:53:36;;;;;;;19.10;8.65;;;7.30;99.90;;;;;;5110458;27;20491;-83
2020/12/14 09:56:02;;;;;;;21.83;9.48;;;7.20;99.90;;;;;;5094587;27;20114;-83
2020/12/14 09:58:29;;;;;;;18.80;8.43;;;7.30;99.90;;;;;;5098313;27;20019;-83
2020/12/14 10:00:55;;;;;;;28.30;8.23;;;7.30;99.90;;;;;;5100991;27;20035;-83
2020/12/14 10:03:20;;;;;;;19.27;7.80;;;7.30;99.90;;;;;;5129120;27;20046;-83
2020/12/14 10:05:47;;;;;;;14.70;7.70;;;7.30;99.90;;;;;;5115984;27;20051;-83
2020/12/14 10:08:16;;;;;;;33.58;11.00;;;7.30;99.90;;;;;;5121162;27;20050;-83
2020/12/14 10:10:43;;;;;;;33.85;15.00;;;7.30;99.90;;;;;;5118985;27;20026;-83
2020/12/14 10:13:09;;;;;;;19.95;9.38;;;7.30;99.90;;;;;;5118634;27;20135;-83
2020/12/14 10:15:35;;;;;;;30.52;14.15;;;7.30;99.90;;;;;;5114560;27;20031;-83
2020/12/14 10:18:01;;;;;;;25.45;9.70;;;7.40;99.90;;;;;;5116720;27;20045;-83
2020/12/14 10:20:28;;;;;;;29.33;9.63;;;7.40;99.90;;;;;;5096137;28;20184;-83
2020/12/14 10:22:54;;;;;;;21.05;9.38;;;7.40;99.90;;;;;;5096158;27;20073;-84
2020/12/14 10:25:20;;;;;;;28.38;8.60;;;7.40;99.90;;;;;;5094341;27;20095;-82
2020/12/14 10:27:45;;;;;;;20.20;7.88;;;7.50;99.90;;;;;;5076528;28;21460;-83
2020/12/14 10:30:11;;;;;;;16.70;8.00;;;7.50;99.90;;;;;;5080984;28;20040;-82
2020/12/14 10:32:37;;;;;;;22.02;10.38;;;7.60;99.90;;;;;;5095028;28;20144;-85
2020/12/14 10:35:03;;;;;;;19.23;8.38;;;7.60;99.90;;;;;;5081039;28;20082;-83
2020/12/14 10:37:30;;;;;;;23.05;8.48;;;7.60;99.90;;;;;;5076928;28;20020;-83
2020/12/14 10:39:55;;;;;;;25.98;9.20;;;7.60;99.90;;;;;;5094579;27;20049;-83
2020/12/14 10:42:21;;;;;;;22.25;8.88;;;7.70;99.90;;;;;;5094816;28;20072;-83
2020/12/14 10:44:53;;;;;;;20.10;8.45;;;7.70;99.90;;;;;;5096787;28;21024;-83
2020/12/14 10:47:20;;;;;;;22.40;8.60;;;7.70;99.90;;;;;;5080764;28;20046;-82
2020/12/14 10:49:45;;;;;;;21.30;8.38;;;7.80;99.90;;;;;;5081757;28;20031;-83
2020/12/14 10:52:11;;;;;;;29.98;8.15;;;7.80;99.90;;;;;;5095841;27;20126;-82
2020/12/14 10:54:37;;;;;;;23.67;9.50;;;7.80;99.90;;;;;;5119245;27;20132;-83
2020/12/14 10:57:04;;;;;;;17.20;8.85;;;7.90;99.90;;;;;;5134254;27;20035;-83
2020/12/14 10:59:30;;;;;;;18.17;8.55;;;8.00;99.90;;;;;;5118881;27;20034;-84
2020/12/14 11:01:56;;;;;;;18.83;8.20;;;8.00;99.90;;;;;;5114324;27;20053;-84
2020/12/14 11:04:23;;;;;;;18.90;8.48;;;8.00;99.90;;;;;;5114919;27;20088;-83
2020/12/14 11:06:48;;;;;;;22.25;8.35;;;8.10;99.90;;;;;;5113891;27;20495;-83
2020/12/14 11:09:14;;;;;;;23.80;9.10;;;8.20;99.90;;;;;;5114059;27;20105;-83
2020/12/14 11:11:40;;;;;;;26.65;8.80;;;8.30;99.90;;;;;;5116214;27;20156;-82
2020/12/14 11:14:05;;;;;;;18.45;10.00;;;8.40;99.90;;;;;;5131927;27;20466;-83
2020/12/14 11:16:32;;;;;;;15.02;7.95;;;8.30;99.90;;;;;;5103570;27;20079;-83
2020/12/14 11:18:59;;;;;;;21.08;8.52;;;8.40;99.90;;;;;;5114522;27;20029;-83
2020/12/14 11:21:25;;;;;;;27.83;7.30;;;8.40;99.90;;;;;;5116867;27;20117;-84
2020/12/14 11:23:52;;;;;;;15.30;7.40;;;8.50;99.90;;;;;;5133032;27;20130;-83
2020/12/14 11:26:18;;;;;;;19.45;7.28;;;8.50;99.90;;;;;;5109837;27;20038;-83
2020/12/14 11:28:43;;;;;;;19.73;9.05;;;8.60;99.90;;;;;;5117449;27;20030;-82
2020/12/14 11:31:09;;;;;;;16.67;7.28;;;8.60;99.90;;;;;;5118681;27;20023;-82
2020/12/14 11:33:35;;;;;;;13.02;6.90;;;8.70;99.90;;;;;;5114552;27;20043;-83
2020/12/14 11:36:02;;;;;;;17.42;8.07;;;8.80;99.90;;;;;;5117289;27;20472;-82
2020/12/14 11:38:30;;;;;;;28.75;13.63;;;8.80;99.90;;;;;;5129719;27;20095;-83
2020/12/14 11:40:57;;;;;;;20.55;6.43;;;8.80;99.90;;;;;;5133220;27;20018;-84
2020/12/14 11:43:23;;;;;;;16.80;6.72;;;8.90;99.90;;;;;;5101230;27;20414;-84
2020/12/14 11:45:48;;;;;;;14.40;6.88;;;8.90;99.90;;;;;;5115648;27;20035;-84
2020/12/14 11:48:16;;;;;;;15.60;6.53;;;8.90;99.90;;;;;;5119146;27;20031;-84
2020/12/14 11:50:42;;;;;;;18.77;8.75;;;9.00;99.90;;;;;;5120716;27;20035;-84
2020/12/14 11:53:09;;;;;;;12.98;5.85;;;9.10;99.90;;;;;;5128109;27;20452;-82
2020/12/14 11:55:39;;;;;;;14.10;5.93;;;9.10;99.90;;;;;;5124117;27;20052;-81
2020/12/14 11:58:06;;;;;;;17.92;6.00;;;9.20;99.90;;;;;;5121826;27;20066;-83
2020/12/14 12:00:32;;;;;;;18.48;5.93;;;9.20;99.90;;;;;;5081556;27;20118;-83
2020/12/14 12:02:58;;;;;;;10.35;5.65;;;9.30;99.90;;;;;;5076999;28;20036;-83
2020/12/14 12:05:24;;;;;;;9.60;5.30;;;9.30;99.90;;;;;;5080790;28;20130;-83
2020/12/14 12:07:50;;;;;;;9.13;5.55;;;9.30;99.90;;;;;;5079769;28;20112;-83
2020/12/14 12:10:16;;;;;;;10.70;5.72;;;9.40;99.90;;;;;;5082996;27;20329;-84
2020/12/14 12:12:42;;;;;;;16.00;7.22;;;9.30;99.90;;;;;;5080788;28;20019;-84
2020/12/14 12:15:08;;;;;;;13.52;6.25;;;9.30;99.90;;;;;;5078751;28;20044;-83
2020/12/14 12:17:33;;;;;;;14.52;6.07;;;9.30;99.90;;;;;;5094518;27;20221;-83
2020/12/14 12:19:59;;;;;;;17.60;5.35;;;9.40;99.90;;;;;;5078280;28;20375;-83
2020/12/14 12:22:25;;;;;;;18.63;6.10;;;9.40;99.90;;;;;;5082569;28;20165;-84
2020/12/14 12:24:50;;;;;;;9.13;5.50;;;9.40;99.90;;;;;;5083069;28;20122;-83
2020/12/14 12:27:16;;;;;;;23.80;7.00;;;9.40;99.90;;;;;;5080762;27;20074;-83
2020/12/14 12:29:42;;;;;;;14.10;6.13;;;9.40;99.90;;;;;;5096598;27;21177;-82
2020/12/14 12:32:08;;;;;;;11.93;5.75;;;9.40;99.90;;;;;;5123202;27;20047;-84
2020/12/14 12:34:38;;;;;;;21.65;8.48;;;9.40;99.90;;;;;;5123358;27;20053;-83
2020/12/14 12:37:04;;;;;;;15.68;6.68;;;9.40;99.90;;;;;;5124078;27;20039;-84
2020/12/14 12:39:30;;;;;;;15.65;6.53;;;9.50;99.90;;;;;;5142420;27;20048;-84
2020/12/14 12:41:57;;;;;;;10.27;6.22;;;9.50;99.90;;;;;;5118660;27;20023;-83
2020/12/14 12:44:23;;;;;;;14.95;6.07;;;9.50;99.90;;;;;;5122620;27;20443;-84
2020/12/14 12:46:49;;;;;;;16.80;6.60;;;9.50;99.90;;;;;;5117612;27;20145;-84